Time;durP1;ratioP1;P1;durP2;ratioP2;P2;SDS_P1;SDS_P2;PMS_P1;PMS_P2;Temp;Humidity;BMP_temperature;BMP_pressure;BME280_temperature;BME280_humidity;BME280_pressure;Samples;Min_cycle;Max_cycle;Signal;HPM_P1;HPM_P2
2022/08/20 00:00:29;;;;;;;0.60;0.60;;;17.60;99.90;;;;;;5072562;28;20387;-74
2022/08/20 00:03:01;;;;;;;0.40;0.20;;;17.50;99.90;;;;;;5072201;28;20528;-74
2022/08/20 00:05:35;;;;;;;1.60;1.50;;;17.50;99.90;;;;;;5072471;28;20450;-75
2022/08/20 00:08:00;;;;;;;0.60;0.60;;;17.40;99.90;;;;;;5072211;28;20379;-74
2022/08/20 00:10:27;;;;;;;0.40;0.33;;;17.40;99.90;;;;;;5054345;28;20469;-73
2022/08/20 00:12:53;;;;;;;0.60;0.60;;;17.40;99.90;;;;;;5072753;28;20415;-74
2022/08/20 00:15:23;;;;;;;0.40;0.30;;;17.40;99.90;;;;;;5072254;28;20376;-74
2022/08/20 00:17:50;;;;;;;0.70;0.70;;;17.40;99.90;;;;;;5072102;28;20380;-74
2022/08/20 00:20:19;;;;;;;0.40;0.30;;;17.40;99.90;;;;;;5072280;28;20910;-74
2022/08/20 00:22:45;;;;;;;0.40;0.20;;;17.40;99.90;;;;;;5071467;28;20402;-73
2022/08/20 00:25:12;;;;;;;0.40;0.30;;;17.40;99.90;;;;;;5072076;28;20395;-74
2022/08/20 00:27:38;;;;;;;0.40;0.40;;;17.40;99.90;;;;;;5054132;28;20463;-73
2022/08/20 00:30:10;;;;;;;0.50;0.50;;;17.40;99.90;;;;;;5071989;28;20482;-74
2022/08/20 00:32:44;;;;;;;0.50;0.50;;;17.40;99.90;;;;;;5071603;28;20384;-74
2022/08/20 00:35:10;;;;;;;0.85;0.85;;;17.40;99.90;;;;;;5071939;28;20408;-74
2022/08/20 00:37:36;;;;;;;0.40;0.30;;;17.40;99.90;;;;;;5071801;28;20375;-74
2022/08/20 00:40:04;;;;;;;0.40;0.30;;;17.50;99.90;;;;;;5071850;28;20380;-74
2022/08/20 00:42:30;;;;;;;0.70;0.70;;;17.40;99.90;;;;;;5071587;28;20533;-74
2022/08/20 00:44:55;;;;;;;0.40;0.30;;;17.40;99.90;;;;;;5071643;28;20964;-74
2022/08/20 00:47:21;;;;;;;0.40;0.30;;;17.40;99.90;;;;;;5071726;28;20738;-74
2022/08/20 00:49:46;;;;;;;0.40;0.30;;;17.50;99.90;;;;;;5071452;28;20885;-74
2022/08/20 00:52:18;;;;;;;0.40;0.40;;;17.60;99.90;;;;;;5071473;28;20380;-74
2022/08/20 00:54:52;;;;;;;0.40;0.20;;;17.50;99.90;;;;;;5071399;28;20436;-74
2022/08/20 00:57:29;;;;;;;0.40;0.20;;;17.60;99.90;;;;;;5053570;28;20398;-74
2022/08/20 00:59:56;;;;;;;0.40;0.30;;;17.60;99.90;;;;;;5071390;28;20398;-73
2022/08/20 01:02:24;;;;;;;0.40;0.30;;;17.70;99.90;;;;;;5071395;28;20865;-73
2022/08/20 01:04:56;;;;;;;0.40;0.30;;;17.70;99.90;;;;;;5053240;28;20398;-74
2022/08/20 01:07:31;;;;;;;0.40;0.30;;;17.70;99.90;;;;;;5071343;28;20382;-74
2022/08/20 01:09:58;;;;;;;0.50;0.50;;;17.60;99.90;;;;;;5070226;28;20475;-73
2022/08/20 01:12:24;;;;;;;0.60;0.50;;;17.60;99.90;;;;;;5070982;28;20796;-74
2022/08/20 01:14:50;;;;;;;0.40;0.30;;;17.70;99.90;;;;;;5071007;28;20379;-73
2022/08/20 01:17:22;;;;;;;0.40;0.30;;;17.60;99.90;;;;;;5070981;28;20395;-73
2022/08/20 01:20:11;;;;;;;0.90;0.60;;;17.60;99.90;;;;;;5070934;28;20388;-74
2022/08/20 01:25:56;;;;;;;0.40;0.30;;;17.70;99.90;;;;;;5039797;28;20815;-74
2022/08/20 01:28:25;;;;;;;0.40;0.20;;;17.80;99.90;;;;;;5070734;28;20441;-74
2022/08/20 01:30:51;;;;;;;0.60;0.60;;;17.80;99.90;;;;;;5070705;28;20407;-73
2022/08/20 01:33:18;;;;;;;0.40;0.28;;;17.80;99.90;;;;;;5070510;28;20726;-74
2022/08/20 01:35:44;;;;;;;0.40;0.40;;;17.90;99.90;;;;;;5070676;28;20454;-74
2022/08/20 01:38:11;;;;;;;0.40;0.20;;;17.80;99.90;;;;;;5070811;28;20380;-74
2022/08/20 01:40:52;;;;;;;0.40;0.22;;;17.80;99.90;;;;;;5052782;28;20379;-74
2022/08/20 01:43:18;;;;;;;0.40;0.40;;;17.80;99.90;;;;;;5070299;28;20455;-74
2022/08/20 01:45:43;;;;;;;0.50;0.50;;;17.70;99.90;;;;;;5070590;28;20471;-72
2022/08/20 01:48:09;;;;;;;0.40;0.20;;;17.80;99.90;;;;;;5070439;28;20804;-73
2022/08/20 01:50:38;;;;;;;0.40;0.30;;;17.80;99.90;;;;;;5070386;28;20811;-73
2022/08/20 01:53:13;;;;;;;0.40;0.40;;;17.90;99.90;;;;;;5070054;28;20387;-74
2022/08/20 01:55:38;;;;;;;0.70;0.70;;;17.90;99.90;;;;;;5070693;28;20384;-73
2022/08/20 01:58:04;;;;;;;0.60;0.60;;;17.90;99.90;;;;;;5070301;28;20386;-74
2022/08/20 02:00:31;;;;;;;0.40;0.30;;;17.80;99.90;;;;;;5070386;28;20719;-74
2022/08/20 02:02:56;;;;;;;0.50;0.40;;;17.90;99.90;;;;;;5052030;28;20391;-74
2022/08/20 02:05:22;;;;;;;0.60;0.60;;;17.90;99.90;;;;;;5070356;28;20469;-74
2022/08/20 02:07:48;;;;;;;0.40;0.30;;;17.90;99.90;;;;;;5070159;28;20745;-74
2022/08/20 02:10:17;;;;;;;0.70;0.70;;;18.00;99.90;;;;;;5106790;22;20777;-74
2022/08/20 02:12:42;;;;;;;0.40;0.40;;;18.00;99.90;;;;;;5090075;28;20378;-74
2022/08/20 02:15:10;;;;;;;0.40;0.30;;;18.00;99.90;;;;;;5092277;28;20378;-74
2022/08/20 02:17:35;;;;;;;0.40;0.40;;;17.90;99.90;;;;;;5090390;28;20848;-74
2022/08/20 02:20:07;;;;;;;0.50;0.50;;;17.90;99.90;;;;;;5090326;28;20385;-74
2022/08/20 02:22:33;;;;;;;0.40;0.30;;;18.00;99.90;;;;;;5089333;28;20374;-75
2022/08/20 02:24:59;;;;;;;0.40;0.40;;;17.90;99.90;;;;;;5090230;28;20504;-74
2022/08/20 02:27:24;;;;;;;0.60;0.60;;;18.00;99.90;;;;;;5090165;28;20435;-74
2022/08/20 02:29:51;;;;;;;0.40;0.30;;;18.10;99.90;;;;;;5090047;28;21004;-74
2022/08/20 02:32:17;;;;;;;0.40;0.30;;;18.00;99.90;;;;;;5090127;28;20496;-74
2022/08/20 02:34:43;;;;;;;0.40;0.30;;;18.10;99.90;;;;;;5090002;28;20397;-74
2022/08/20 02:37:09;;;;;;;1.20;0.80;;;18.00;99.90;;;;;;5090099;28;20374;-75
2022/08/20 02:39:35;;;;;;;0.40;0.30;;;18.00;99.90;;;;;;5089995;28;20465;-73
2022/08/20 02:42:02;;;;;;;0.60;0.60;;;18.00;99.90;;;;;;5088650;28;20508;-74
2022/08/20 02:44:28;;;;;;;0.40;0.30;;;18.00;99.90;;;;;;5088414;28;20390;-74
2022/08/20 02:46:54;;;;;;;0.40;0.30;;;18.00;99.90;;;;;;5090096;28;20464;-74
2022/08/20 02:49:19;;;;;;;0.40;0.30;;;18.00;99.90;;;;;;5089885;28;20444;-74
2022/08/20 02:51:45;;;;;;;0.40;0.30;;;17.90;99.90;;;;;;5090049;28;20737;-74
2022/08/20 02:54:12;;;;;;;0.40;0.30;;;17.90;99.90;;;;;;5089631;28;20389;-74
2022/08/20 02:56:38;;;;;;;0.50;0.50;;;17.90;99.90;;;;;;5089951;28;20413;-74
2022/08/20 02:59:03;;;;;;;0.40;0.30;;;18.00;99.90;;;;;;5090117;28;20925;-74
2022/08/20 03:01:30;;;;;;;0.70;0.70;;;18.10;99.90;;;;;;5088671;28;20443;-74
2022/08/20 03:03:57;;;;;;;0.40;0.40;;;18.10;99.90;;;;;;5088376;28;20903;-73
2022/08/20 03:06:23;;;;;;;0.40;0.20;;;18.10;99.90;;;;;;5089895;28;20392;-74
2022/08/20 03:08:49;;;;;;;0.40;0.20;;;18.00;99.90;;;;;;5089478;28;20393;-74
2022/08/20 03:11:16;;;;;;;0.40;0.30;;;18.00;99.90;;;;;;5089770;28;20374;-74
2022/08/20 03:13:41;;;;;;;0.60;0.60;;;18.10;99.90;;;;;;5089609;28;20451;-74
2022/08/20 03:16:08;;;;;;;1.10;1.10;;;18.10;99.90;;;;;;5089760;28;20382;-74
2022/08/20 03:18:36;;;;;;;0.47;0.47;;;18.10;99.90;;;;;;5089720;28;20810;-74
2022/08/20 03:21:04;;;;;;;0.40;0.20;;;18.10;99.90;;;;;;5089262;28;20725;-74
2022/08/20 03:23:30;;;;;;;0.40;0.20;;;18.10;99.90;;;;;;5089455;28;20390;-74
2022/08/20 03:25:56;;;;;;;0.40;0.30;;;18.20;99.90;;;;;;5089681;28;20520;-74
2022/08/20 03:28:22;;;;;;;0.70;0.70;;;18.30;99.90;;;;;;5089592;28;20473;-73
2022/08/20 03:30:50;;;;;;;0.40;0.30;;;18.20;99.90;;;;;;5089611;28;20430;-75
2022/08/20 03:33:16;;;;;;;0.50;0.50;;;18.20;99.90;;;;;;5091122;28;20483;-74
2022/08/20 03:35:42;;;;;;;0.40;0.40;;;18.10;99.90;;;;;;5093513;28;20872;-74
2022/08/20 03:38:10;;;;;;;0.60;0.60;;;18.10;99.90;;;;;;5093587;28;20373;-74
2022/08/20 03:40:36;;;;;;;0.40;0.20;;;18.20;99.90;;;;;;5093567;28;20386;-74
2022/08/20 03:43:04;;;;;;;1.15;1.08;;;18.10;99.90;;;;;;5093302;28;20386;-74
2022/08/20 03:45:31;;;;;;;0.40;0.30;;;18.20;99.90;;;;;;5093581;28;20479;-74
2022/08/20 03:47:58;;;;;;;0.80;0.80;;;18.20;99.90;;;;;;5092066;28;20393;-74
2022/08/20 03:50:27;;;;;;;0.40;0.40;;;18.20;99.90;;;;;;5093276;28;20390;-74
2022/08/20 03:52:54;;;;;;;0.40;0.30;;;18.20;99.90;;;;;;5093380;28;20972;-74
2022/08/20 03:55:21;;;;;;;0.50;0.50;;;18.20;99.90;;;;;;5093273;28;20409;-74
2022/08/20 03:57:50;;;;;;;0.40;0.30;;;18.20;99.90;;;;;;5093399;28;20388;-74
2022/08/20 04:00:20;;;;;;;0.40;0.30;;;18.30;99.90;;;;;;5093198;28;20397;-77
2022/08/20 04:02:46;;;;;;;0.40;0.30;;;18.20;99.90;;;;;;5092803;28;20535;-74
2022/08/20 04:05:12;;;;;;;0.40;0.40;;;18.20;99.90;;;;;;5091852;28;20389;-74
2022/08/20 04:07:37;;;;;;;0.50;0.50;;;18.30;99.90;;;;;;5093036;28;20386;-77
2022/08/20 04:10:08;;;;;;;0.57;0.57;;;18.30;99.90;;;;;;5092785;28;20907;-75
2022/08/20 04:12:38;;;;;;;0.40;0.30;;;18.30;99.90;;;;;;5092777;28;20384;-75
2022/08/20 04:15:04;;;;;;;0.40;0.40;;;18.30;99.90;;;;;;5092814;28;20370;-74
2022/08/20 04:17:32;;;;;;;0.40;0.30;;;18.20;99.90;;;;;;5096122;28;20378;-74
2022/08/20 04:19:57;;;;;;;0.40;0.40;;;18.20;99.90;;;;;;5091876;28;20390;-75
2022/08/20 04:22:23;;;;;;;0.60;0.60;;;18.20;99.90;;;;;;5092255;28;20993;-75
2022/08/20 04:24:49;;;;;;;0.40;0.20;;;18.30;99.90;;;;;;5092616;28;20381;-75
2022/08/20 04:27:14;;;;;;;0.40;0.30;;;18.40;99.90;;;;;;5092633;28;20393;-75
2022/08/20 04:29:41;;;;;;;0.40;0.40;;;18.30;99.90;;;;;;5092539;28;20401;-74
2022/08/20 04:32:07;;;;;;;0.40;0.40;;;18.20;99.90;;;;;;5092657;28;20439;-74
2022/08/20 04:34:33;;;;;;;0.40;0.20;;;18.30;99.90;;;;;;5092367;28;20432;-75
2022/08/20 04:36:59;;;;;;;0.50;0.40;;;18.40;99.90;;;;;;5092587;28;20382;-74
2022/08/20 04:39:25;;;;;;;0.40;0.30;;;18.40;99.90;;;;;;5092343;28;20421;-75
2022/08/20 04:41:51;;;;;;;0.40;0.30;;;18.40;99.90;;;;;;5092321;28;20833;-75
2022/08/20 04:44:16;;;;;;;0.40;0.20;;;18.40;99.90;;;;;;5091134;28;20466;-75
2022/08/20 04:46:42;;;;;;;0.40;0.30;;;18.40;99.90;;;;;;5092189;28;20378;-75
2022/08/20 04:49:08;;;;;;;0.40;0.30;;;18.30;99.90;;;;;;5092160;28;20402;-75
2022/08/20 04:51:34;;;;;;;0.40;0.40;;;18.30;99.90;;;;;;5090937;28;20382;-75
2022/08/20 04:54:01;;;;;;;0.40;0.20;;;18.30;99.90;;;;;;5091994;28;20376;-74
2022/08/20 04:56:29;;;;;;;0.40;0.33;;;18.30;99.90;;;;;;5092093;28;20802;-75
2022/08/20 04:58:57;;;;;;;0.40;0.20;;;18.40;99.90;;;;;;5092124;28;20476;-75
2022/08/20 05:01:24;;;;;;;0.40;0.40;;;18.40;99.90;;;;;;5092224;28;20468;-74
2022/08/20 05:03:53;;;;;;;0.40;0.40;;;18.40;99.90;;;;;;5090578;28;20394;-75
2022/08/20 05:06:19;;;;;;;0.40;0.40;;;18.40;99.90;;;;;;5092021;28;20416;-75
2022/08/20 05:08:46;;;;;;;0.40;0.30;;;18.40;99.90;;;;;;5091759;28;20451;-75
2022/08/20 05:11:13;;;;;;;0.40;0.30;;;18.50;99.90;;;;;;5090614;28;20459;-76
2022/08/20 05:13:39;;;;;;;0.40;0.30;;;18.60;99.90;;;;;;5091727;28;20868;-76
2022/08/20 05:16:05;;;;;;;0.40;0.20;;;18.60;99.90;;;;;;5091915;28;20456;-75
2022/08/20 05:18:34;;;;;;;0.40;0.20;;;18.60;99.90;;;;;;5091765;28;20377;-75
2022/08/20 05:21:06;;;;;;;0.40;0.40;;;18.70;99.90;;;;;;5089838;28;20386;-75
2022/08/20 05:23:36;;;;;;;0.40;0.27;;;18.80;99.90;;;;;;5091425;28;20868;-75
2022/08/20 05:26:06;;;;;;;0.40;0.30;;;18.70;99.90;;;;;;5091710;28;20379;-75
2022/08/20 05:28:33;;;;;;;0.40;0.20;;;18.70;99.90;;;;;;5090335;28;20385;-75
2022/08/20 05:31:00;;;;;;;0.40;0.30;;;18.70;99.90;;;;;;5091483;28;20442;-75
2022/08/20 05:33:27;;;;;;;1.10;1.10;;;18.80;99.90;;;;;;5091176;28;20386;-75
2022/08/20 05:35:53;;;;;;;0.40;0.40;;;18.80;99.90;;;;;;5090309;28;20397;-75
2022/08/20 05:38:25;;;;;;;0.50;0.50;;;18.80;99.90;;;;;;5091466;28;20855;-75
2022/08/20 05:40:51;;;;;;;0.40;0.30;;;18.80;99.90;;;;;;5091453;28;20876;-74
2022/08/20 05:43:17;;;;;;;0.40;0.20;;;18.80;99.90;;;;;;5091376;28;20504;-75
2022/08/20 05:45:45;;;;;;;0.40;0.33;;;18.80;99.90;;;;;;5091521;28;20412;-74
2022/08/20 05:48:15;;;;;;;0.60;0.60;;;18.60;99.90;;;;;;5091233;28;20386;-73
2022/08/20 05:50:43;;;;;;;0.40;0.20;;;18.50;99.90;;;;;;5091417;28;20395;-74
2022/08/20 05:53:09;;;;;;;0.40;0.40;;;18.50;99.90;;;;;;5091047;28;20382;-73
2022/08/20 05:55:38;;;;;;;0.40;0.30;;;18.50;99.90;;;;;;5091059;28;20377;-73
2022/08/20 05:58:06;;;;;;;0.40;0.30;;;18.50;99.90;;;;;;5091170;28;20378;-73
2022/08/20 06:00:33;;;;;;;0.40;0.30;;;18.50;99.90;;;;;;5089765;28;20394;-74
2022/08/20 06:05:43;;;;;;;0.40;0.30;;;18.50;99.90;;;;;;5091424;28;20440;-73
2022/08/20 06:08:10;;;;;;;0.40;0.30;;;18.40;99.90;;;;;;5091253;28;20928;-73
2022/08/20 06:10:38;;;;;;;0.40;0.28;;;18.40;99.90;;;;;;5091649;28;20794;-74
2022/08/20 06:13:04;;;;;;;0.40;0.30;;;18.40;99.90;;;;;;5091009;28;20386;-74
2022/08/20 06:15:31;;;;;;;0.47;0.47;;;18.40;99.90;;;;;;5091231;28;20381;-74
2022/08/20 06:17:57;;;;;;;0.40;0.40;;;18.50;99.90;;;;;;5091076;28;20378;-73
2022/08/20 06:20:23;;;;;;;0.40;0.30;;;18.50;99.90;;;;;;5090937;28;20385;-73
2022/08/20 06:22:48;;;;;;;0.40;0.30;;;18.60;99.90;;;;;;5090215;28;20428;-73
2022/08/20 06:25:14;;;;;;;0.40;0.30;;;18.50;99.90;;;;;;5091186;28;20485;-73
2022/08/20 06:27:42;;;;;;;0.40;0.30;;;18.50;99.90;;;;;;5089950;28;20405;-73
2022/08/20 06:30:10;;;;;;;0.40;0.30;;;18.50;99.90;;;;;;5090905;28;20405;-73
2022/08/20 06:32:35;;;;;;;0.40;0.20;;;18.40;99.90;;;;;;5090810;28;20378;-73
2022/08/20 06:35:04;;;;;;;0.40;0.40;;;18.40;99.90;;;;;;5091178;28;20423;-72
2022/08/20 06:37:31;;;;;;;0.60;0.60;;;18.30;99.90;;;;;;5090650;28;20378;-72
2022/08/20 06:40:01;;;;;;;0.50;0.50;;;18.30;99.90;;;;;;5090607;28;20378;-72
2022/08/20 06:42:27;;;;;;;0.40;0.20;;;18.30;99.90;;;;;;5090615;28;20389;-72
2022/08/20 06:44:53;;;;;;;1.10;0.80;;;18.30;99.90;;;;;;5090597;28;20396;-73
2022/08/20 06:47:19;;;;;;;0.40;0.40;;;18.20;99.90;;;;;;5089382;28;20794;-72
2022/08/20 06:49:46;;;;;;;0.40;0.30;;;18.30;99.90;;;;;;5090558;28;20413;-73
2022/08/20 06:52:15;;;;;;;0.40;0.30;;;18.30;99.90;;;;;;5089156;28;20465;-73
2022/08/20 06:54:42;;;;;;;0.40;0.30;;;18.30;99.90;;;;;;5090374;28;20461;-73
2022/08/20 06:57:08;;;;;;;0.50;0.50;;;18.30;99.90;;;;;;5089212;28;20374;-72
2022/08/20 06:59:35;;;;;;;0.40;0.20;;;18.30;99.90;;;;;;5090473;28;20393;-72
2022/08/20 07:02:01;;;;;;;0.40;0.30;;;18.30;99.90;;;;;;5090563;28;20736;-73
2022/08/20 07:04:27;;;;;;;0.40;0.30;;;18.40;99.90;;;;;;5090253;28;20401;-72
2022/08/20 07:06:53;;;;;;;0.40;0.30;;;18.20;99.90;;;;;;5090341;28;20374;-72
2022/08/20 07:09:20;;;;;;;0.40;0.20;;;18.20;99.90;;;;;;5093342;28;20775;-72
2022/08/20 07:11:47;;;;;;;0.40;0.40;;;18.30;99.90;;;;;;5094464;28;20470;-72
2022/08/20 07:14:13;;;;;;;0.70;0.70;;;18.30;99.90;;;;;;5094060;28;20380;-73
2022/08/20 07:16:38;;;;;;;0.40;0.30;;;18.30;99.90;;;;;;5094257;28;20416;-72
2022/08/20 07:19:04;;;;;;;0.40;0.30;;;18.30;99.90;;;;;;5094226;28;20385;-73
2022/08/20 07:21:31;;;;;;;0.40;0.40;;;18.40;99.90;;;;;;5093716;28;20382;-73
2022/08/20 07:23:57;;;;;;;0.70;0.70;;;18.50;99.90;;;;;;5093928;28;21113;-72
2022/08/20 07:26:22;;;;;;;0.40;0.20;;;18.50;99.90;;;;;;5094150;28;20424;-74
2022/08/20 07:28:48;;;;;;;0.40;0.30;;;18.50;99.90;;;;;;5094050;28;20491;-73
2022/08/20 07:33:58;;;;;;;0.80;0.80;;;18.60;99.90;;;;;;5093789;28;20400;-73
2022/08/20 07:36:24;;;;;;;0.40;0.20;;;18.70;99.90;;;;;;5093940;28;20382;-73
2022/08/20 07:38:51;;;;;;;0.40;0.30;;;18.80;99.90;;;;;;5093869;28;20386;-73
2022/08/20 07:41:17;;;;;;;0.40;0.30;;;18.90;99.90;;;;;;5093872;28;20382;-73
2022/08/20 07:43:44;;;;;;;0.40;0.40;;;18.90;99.90;;;;;;5093435;28;20847;-73
2022/08/20 07:46:11;;;;;;;1.00;1.00;;;19.10;99.90;;;;;;5093504;28;20426;-73
2022/08/20 07:48:39;;;;;;;0.40;0.30;;;19.30;99.90;;;;;;5093703;28;20899;-73
2022/08/20 07:51:06;;;;;;;0.40;0.30;;;19.20;99.90;;;;;;5093555;28;20433;-73
2022/08/20 07:53:34;;;;;;;0.40;0.20;;;19.20;99.90;;;;;;5093179;28;20469;-72
2022/08/20 07:56:02;;;;;;;0.40;0.30;;;19.20;99.90;;;;;;5093578;28;20755;-72
2022/08/20 07:58:27;;;;;;;0.40;0.40;;;19.10;99.90;;;;;;5093374;28;21053;-72
2022/08/20 08:00:53;;;;;;;0.70;0.70;;;18.90;99.90;;;;;;5093453;28;20523;-73
2022/08/20 08:03:18;;;;;;;0.40;0.30;;;18.90;99.90;;;;;;5093038;28;20378;-72
2022/08/20 08:05:47;;;;;;;0.40;0.20;;;18.90;99.90;;;;;;5093200;28;20891;-73
2022/08/20 08:08:24;;;;;;;0.40;0.30;;;19.00;99.90;;;;;;5093166;28;20378;-73
2022/08/20 08:10:54;;;;;;;0.40;0.20;;;19.00;99.90;;;;;;5093236;28;20402;-71
2022/08/20 08:13:25;;;;;;;0.40;0.30;;;19.00;99.90;;;;;;5092879;28;20448;-74
2022/08/20 08:15:53;;;;;;;0.40;0.30;;;19.10;99.90;;;;;;5092164;28;20417;-73
2022/08/20 08:18:23;;;;;;;0.40;0.20;;;19.20;99.90;;;;;;5092022;28;20366;-73
2022/08/20 08:20:52;;;;;;;0.40;0.20;;;19.30;99.90;;;;;;5092279;28;20801;-74
2022/08/20 08:23:21;;;;;;;0.40;0.20;;;19.30;99.90;;;;;;5091266;28;20479;-74
2022/08/20 08:25:48;;;;;;;0.40;0.30;;;19.40;99.90;;;;;;5093273;28;20402;-73
2022/08/20 08:28:14;;;;;;;0.40;0.30;;;19.40;99.90;;;;;;5093058;28;20410;-74
2022/08/20 08:30:44;;;;;;;0.40;0.30;;;19.40;99.90;;;;;;5093007;28;20433;-74
2022/08/20 08:33:28;;;;;;;0.40;0.40;;;19.40;99.90;;;;;;5092672;28;20374;-73
2022/08/20 08:35:55;;;;;;;0.40;0.30;;;19.50;99.90;;;;;;5093182;28;20713;-73
2022/08/20 08:38:22;;;;;;;0.40;0.30;;;19.60;99.90;;;;;;5093332;28;20374;-73
2022/08/20 08:40:53;;;;;;;0.40;0.30;;;19.60;99.90;;;;;;5093617;28;20408;-73
2022/08/20 08:43:21;;;;;;;0.40;0.20;;;19.50;99.90;;;;;;5091906;28;20888;-73
2022/08/20 08:45:55;;;;;;;0.40;0.30;;;19.70;99.90;;;;;;5092652;28;20378;-72
2022/08/20 08:48:24;;;;;;;0.40;0.20;;;19.70;99.90;;;;;;5092409;28;20386;-73
2022/08/20 08:50:52;;;;;;;0.40;0.20;;;19.70;99.90;;;;;;5092456;28;20395;-72
2022/08/20 08:53:23;;;;;;;0.40;0.30;;;19.90;99.90;;;;;;5092152;28;20421;-72
2022/08/20 08:55:49;;;;;;;0.40;0.20;;;19.80;99.90;;;;;;5092512;28;20375;-73
2022/08/20 08:58:15;;;;;;;0.40;0.30;;;19.80;99.90;;;;;;5090896;28;20393;-72
2022/08/20 09:00:40;;;;;;;0.40;0.30;;;19.90;99.90;;;;;;5092839;28;20752;-73
2022/08/20 09:03:15;;;;;;;0.40;0.20;;;20.00;99.90;;;;;;5091946;28;20385;-72
2022/08/20 09:05:47;;;;;;;0.40;0.30;;;19.80;99.90;;;;;;5092223;28;20459;-73
2022/08/20 09:08:18;;;;;;;0.40;0.20;;;19.90;99.90;;;;;;5092017;28;20390;-72
2022/08/20 09:10:44;;;;;;;0.40;0.30;;;19.90;99.90;;;;;;5092070;28;20406;-72
2022/08/20 09:13:10;;;;;;;0.40;0.20;;;20.00;99.90;;;;;;5091743;28;20373;-73
2022/08/20 09:15:36;;;;;;;0.40;0.30;;;19.90;99.90;;;;;;5092003;28;20417;-73
2022/08/20 09:18:02;;;;;;;0.40;0.20;;;19.90;99.90;;;;;;5091963;28;20438;-73
2022/08/20 09:20:28;;;;;;;0.40;0.30;;;19.90;99.90;;;;;;5091721;28;20382;-73
2022/08/20 09:22:54;;;;;;;0.40;0.20;;;19.90;99.90;;;;;;5089677;28;20849;-73
2022/08/20 09:25:20;;;;;;;0.40;0.30;;;19.90;99.90;;;;;;5090299;28;20466;-73
2022/08/20 09:27:45;;;;;;;0.40;0.20;;;20.20;99.90;;;;;;5091588;28;20802;-74
2022/08/20 09:30:12;;;;;;;0.40;0.30;;;20.30;99.90;;;;;;5091127;28;20446;-74
2022/08/20 09:32:37;;;;;;;0.40;0.30;;;20.20;99.90;;;;;;5091263;28;20374;-73
2022/08/20 09:35:03;;;;;;;0.40;0.23;;;20.40;99.90;;;;;;5090849;28;20721;-73
2022/08/20 09:37:31;;;;;;;0.40;0.20;;;20.50;99.90;;;;;;5091794;28;20452;-73
2022/08/20 09:39:57;;;;;;;0.40;0.30;;;20.60;99.90;;;;;;5091480;28;20420;-73
2022/08/20 09:42:29;;;;;;;0.40;0.20;;;20.80;99.90;;;;;;5091541;28;20410;-72
2022/08/20 09:44:55;;;;;;;0.40;0.30;;;20.60;99.90;;;;;;5091423;28;20459;-73
2022/08/20 09:47:21;;;;;;;0.40;0.20;;;20.50;99.90;;;;;;5091479;28;20385;-73
2022/08/20 09:49:47;;;;;;;0.40;0.30;;;20.50;99.90;;;;;;5091562;28;20406;-73
2022/08/20 09:52:29;;;;;;;0.40;0.30;;;20.60;99.90;;;;;;5091379;28;20381;-74
2022/08/20 09:55:01;;;;;;;0.40;0.20;;;20.60;99.90;;;;;;5091299;28;20389;-76
2022/08/20 09:57:28;;;;;;;0.40;0.20;;;20.50;99.90;;;;;;5091243;28;20461;-74
2022/08/20 10:00:00;;;;;;;0.40;0.30;;;20.50;99.90;;;;;;5091193;28;20397;-73
2022/08/20 10:02:26;;;;;;;0.40;0.20;;;20.70;99.90;;;;;;5090531;28;20386;-73
2022/08/20 10:04:51;;;;;;;0.40;0.30;;;20.80;99.90;;;;;;5091273;28;20386;-74
2022/08/20 10:07:17;;;;;;;0.40;0.20;;;21.00;99.90;;;;;;5091308;28;20798;-75
2022/08/20 10:09:43;;;;;;;0.40;0.30;;;21.10;99.90;;;;;;5091133;28;20436;-74
2022/08/20 10:12:09;;;;;;;0.40;0.20;;;21.10;99.90;;;;;;5091493;28;20464;-74
2022/08/20 10:14:34;;;;;;;0.40;0.27;;;20.90;99.90;;;;;;5091433;28;20370;-73
2022/08/20 10:17:02;;;;;;;0.40;0.30;;;20.90;99.90;;;;;;5091289;28;20789;-73
2022/08/20 10:19:29;;;;;;;0.40;0.20;;;21.00;99.90;;;;;;5091179;28;20758;-74
2022/08/20 10:21:54;;;;;;;0.40;0.30;;;21.20;99.90;;;;;;5089643;28;20891;-74
2022/08/20 10:24:21;;;;;;;0.40;0.20;;;21.30;99.90;;;;;;5091045;28;20397;-74
2022/08/20 10:26:47;;;;;;;0.40;0.20;;;21.40;99.90;;;;;;5091145;28;20411;-74
2022/08/20 10:29:13;;;;;;;0.40;0.30;;;21.60;99.90;;;;;;5090979;28;20386;-74
2022/08/20 10:31:39;;;;;;;0.40;0.20;;;21.30;99.90;;;;;;5089495;28;20374;-74
2022/08/20 10:34:04;;;;;;;0.40;0.30;;;21.40;99.90;;;;;;5090546;28;20374;-74
2022/08/20 10:36:30;;;;;;;0.40;0.20;;;21.60;99.90;;;;;;5089704;28;20405;-74
2022/08/20 10:38:55;;;;;;;0.40;0.30;;;21.70;99.90;;;;;;5090613;28;20386;-74
2022/08/20 10:41:21;;;;;;;0.40;0.30;;;21.50;99.90;;;;;;5090996;28;20393;-73
2022/08/20 10:43:47;;;;;;;0.40;0.30;;;21.60;99.90;;;;;;5094754;28;20385;-73
2022/08/20 10:46:13;;;;;;;0.40;0.30;;;21.90;99.90;;;;;;5094876;28;20381;-73
2022/08/20 10:48:38;;;;;;;0.40;0.25;;;21.90;99.90;;;;;;5094803;28;20443;-74
2022/08/20 10:51:04;;;;;;;0.40;0.20;;;21.90;99.90;;;;;;5094795;28;20398;-74
2022/08/20 10:53:31;;;;;;;0.40;0.30;;;21.90;99.90;;;;;;5094474;28;20412;-75
2022/08/20 10:55:56;;;;;;;0.40;0.38;;;22.30;99.90;;;;;;5093451;28;20779;-75
2022/08/20 10:58:23;;;;;;;0.40;0.20;;;22.60;99.90;;;;;;5094416;28;20398;-74
2022/08/20 11:00:49;;;;;;;0.40;0.20;;;22.30;99.90;;;;;;5094440;28;20384;-75
2022/08/20 11:03:15;;;;;;;0.40;0.20;;;22.30;99.90;;;;;;5094221;28;20389;-75
2022/08/20 11:05:40;;;;;;;0.40;0.20;;;22.10;99.90;;;;;;5093084;28;20389;-74
2022/08/20 11:08:06;;;;;;;0.40;0.30;;;21.90;99.90;;;;;;5094202;28;20385;-74
2022/08/20 11:10:33;;;;;;;0.40;0.23;;;22.00;99.90;;;;;;5094187;28;20416;-74
2022/08/20 11:13:00;;;;;;;0.40;0.30;;;22.20;99.90;;;;;;5093865;28;20464;-75
2022/08/20 11:15:26;;;;;;;0.40;0.30;;;22.30;99.90;;;;;;5092849;28;20450;-75
2022/08/20 11:17:52;;;;;;;0.40;0.30;;;22.50;99.90;;;;;;5094204;28;20382;-74
2022/08/20 11:20:20;;;;;;;0.40;0.20;;;22.50;99.90;;;;;;5092820;28;20385;-74
2022/08/20 11:22:46;;;;;;;0.40;0.30;;;22.70;99.90;;;;;;5093526;28;20377;-75
2022/08/20 11:25:12;;;;;;;0.40;0.30;;;23.00;99.90;;;;;;5093925;28;20380;-75
2022/08/20 11:27:45;;;;;;;0.40;0.30;;;23.10;99.90;;;;;;5093910;28;20381;-74
2022/08/20 11:30:16;;;;;;;0.40;0.20;;;23.20;99.90;;;;;;5093725;28;20394;-75
2022/08/20 11:32:41;;;;;;;0.40;0.30;;;23.30;99.90;;;;;;5093626;28;20374;-75
2022/08/20 11:35:08;;;;;;;0.70;0.60;;;22.90;99.90;;;;;;5093758;28;20416;-76
2022/08/20 11:37:33;;;;;;;0.40;0.30;;;23.10;99.90;;;;;;5093668;28;20423;-75
2022/08/20 11:39:59;;;;;;;0.40;0.20;;;22.70;99.90;;;;;;5093672;28;20385;-75
2022/08/20 11:42:24;;;;;;;0.40;0.30;;;22.60;99.90;;;;;;5093508;28;20471;-75
2022/08/20 11:44:50;;;;;;;0.50;0.50;;;22.30;99.90;;;;;;5094391;28;20393;-75
2022/08/20 11:47:24;;;;;;;0.50;0.50;;;22.30;99.90;;;;;;5093612;28;20403;-75
2022/08/20 11:50:06;;;;;;;0.40;0.30;;;22.20;99.90;;;;;;5093401;28;21008;-75
2022/08/20 11:52:32;;;;;;;0.40;0.30;;;23.10;99.90;;;;;;5093502;28;20373;-75
2022/08/20 11:54:58;;;;;;;0.40;0.30;;;24.00;99.90;;;;;;5093316;28;20454;-75
2022/08/20 11:57:26;;;;;;;0.40;0.30;;;24.70;99.90;;;;;;5093853;28;20377;-76
2022/08/20 11:59:54;;;;;;;0.40;0.25;;;25.30;99.90;;;;;;5093422;28;20378;-76
2022/08/20 12:02:19;;;;;;;0.40;0.30;;;24.70;99.90;;;;;;5092295;28;20880;-75
2022/08/20 12:04:46;;;;;;;0.40;0.20;;;24.00;99.90;;;;;;5091807;28;20389;-75
2022/08/20 12:07:13;;;;;;;0.40;0.30;;;24.20;99.90;;;;;;5093514;28;20390;-75
2022/08/20 12:09:40;;;;;;;0.40;0.20;;;24.90;99.90;;;;;;5092977;28;20455;-76
2022/08/20 12:12:06;;;;;;;0.40;0.20;;;25.00;99.90;;;;;;5093468;28;20390;-75
2022/08/20 12:14:32;;;;;;;0.40;0.20;;;24.50;99.90;;;;;;5092688;28;20386;-76
2022/08/20 12:16:57;;;;;;;0.40;0.20;;;24.80;99.90;;;;;;5093315;28;20451;-75
2022/08/20 12:19:24;;;;;;;0.40;0.30;;;25.10;99.90;;;;;;5092972;28;20389;-76
2022/08/20 12:21:49;;;;;;;0.40;0.20;;;25.20;99.90;;;;;;5092807;28;20910;-75
2022/08/20 12:24:15;;;;;;;0.40;0.30;;;25.00;99.90;;;;;;5091497;28;20390;-75
2022/08/20 12:26:40;;;;;;;0.40;0.30;;;24.80;99.90;;;;;;5092980;28;20378;-75
2022/08/20 12:29:06;;;;;;;0.40;0.30;;;25.40;99.90;;;;;;5092745;28;20389;-75
2022/08/20 12:31:31;;;;;;;0.40;0.30;;;25.60;99.90;;;;;;5092770;28;20431;-76
2022/08/20 12:33:57;;;;;;;0.40;0.30;;;26.00;99.90;;;;;;5092525;28;20442;-75
2022/08/20 12:36:22;;;;;;;0.40;0.30;;;26.50;99.90;;;;;;5091603;28;20469;-76
2022/08/20 12:38:48;;;;;;;0.40;0.25;;;26.30;99.90;;;;;;5091386;28;20371;-76
2022/08/20 12:41:13;;;;;;;0.40;0.30;;;27.00;99.90;;;;;;5092629;28;20382;-76
2022/08/20 12:43:39;;;;;;;0.40;0.30;;;26.30;99.90;;;;;;5090943;28;20382;-76
2022/08/20 12:46:04;;;;;;;0.40;0.30;;;25.70;99.90;;;;;;5092925;28;20374;-76
2022/08/20 12:48:30;;;;;;;0.40;0.23;;;25.20;99.90;;;;;;5091564;28;20382;-75
2022/08/20 12:50:56;;;;;;;0.40;0.30;;;25.30;99.90;;;;;;5092290;28;20409;-76
2022/08/20 12:53:21;;;;;;;0.40;0.30;;;25.80;99.90;;;;;;5092072;28;20790;-76
2022/08/20 12:55:47;;;;;;;0.40;0.20;;;25.80;99.90;;;;;;5092271;28;20397;-76